sensor_id;sensor_type;location;lat;lon;timestamp;temperature;humidity
48752;DHT22;34544;48.836;9.174;2023-06-10T00:04:26;16.50;99.90
48752;DHT22;34544;48.836;9.174;2023-06-10T00:06:52;16.70;99.90
48752;DHT22;34544;48.836;9.174;2023-06-10T00:09:19;16.30;99.90
48752;DHT22;34544;48.836;9.174;2023-06-10T00:11:46;16.20;99.90
48752;DHT22;34544;48.836;9.174;2023-06-10T00:14:12;16.20;99.90
48752;DHT22;34544;48.836;9.174;2023-06-10T00:16:38;16.20;99.90
48752;DHT22;34544;48.836;9.174;2023-06-10T00:19:04;16.10;99.90
48752;DHT22;34544;48.836;9.174;2023-06-10T00:21:31;16.10;99.90
48752;DHT22;34544;48.836;9.174;2023-06-10T00:24:06;16.00;99.90
48752;DHT22;34544;48.836;9.174;2023-06-10T00:26:33;16.00;99.90
48752;DHT22;34544;48.836;9.174;2023-06-10T00:28:59;15.90;99.90
48752;DHT22;34544;48.836;9.174;2023-06-10T00:31:26;16.10;99.90
48752;DHT22;34544;48.836;9.174;2023-06-10T00:33:52;16.00;99.90
48752;DHT22;34544;48.836;9.174;2023-06-10T00:36:18;15.90;99.90
48752;DHT22;34544;48.836;9.174;2023-06-10T00:38:44;15.90;99.90
48752;DHT22;34544;48.836;9.174;2023-06-10T00:41:10;15.90;99.90
48752;DHT22;34544;48.836;9.174;2023-06-10T00:43:36;15.90;99.90
48752;DHT22;34544;48.836;9.174;2023-06-10T00:46:02;15.80;99.90
48752;DHT22;34544;48.836;9.174;2023-06-10T00:48:29;15.80;99.90
48752;DHT22;34544;48.836;9.174;2023-06-10T00:50:56;15.70;99.90
48752;DHT22;34544;48.836;9.174;2023-06-10T00:53:22;15.70;99.90
48752;DHT22;34544;48.836;9.174;2023-06-10T00:55:48;15.70;99.90
48752;DHT22;34544;48.836;9.174;2023-06-10T00:58:14;15.60;99.90
48752;DHT22;34544;48.836;9.174;2023-06-10T01:00:41;15.60;99.90
48752;DHT22;34544;48.836;9.174;2023-06-10T01:03:06;15.60;99.90
48752;DHT22;34544;48.836;9.174;2023-06-10T01:05:34;15.50;99.90
48752;DHT22;34544;48.836;9.174;2023-06-10T01:08:09;15.50;99.90
48752;DHT22;34544;48.836;9.174;2023-06-10T01:10:43;15.50;99.90
48752;DHT22;34544;48.836;9.174;2023-06-10T01:13:13;15.40;99.90
48752;DHT22;34544;48.836;9.174;2023-06-10T01:15:39;15.40;99.90
48752;DHT22;34544;48.836;9.174;2023-06-10T01:18:08;15.40;99.90
48752;DHT22;34544;48.836;9.174;2023-06-10T01:20:36;15.40;99.90
48752;DHT22;34544;48.836;9.174;2023-06-10T01:23:06;15.30;99.90
48752;DHT22;34544;48.836;9.174;2023-06-10T01:25:33;15.30;99.90
48752;DHT22;34544;48.836;9.174;2023-06-10T01:28:31;15.30;99.90
48752;DHT22;34544;48.836;9.174;2023-06-10T01:31:35;15.20;99.90
48752;DHT22;34544;48.836;9.174;2023-06-10T01:34:08;15.20;99.90
48752;DHT22;34544;48.836;9.174;2023-06-10T01:36:35;15.20;99.90
48752;DHT22;34544;48.836;9.174;2023-06-10T01:39:02;15.10;99.90
48752;DHT22;34544;48.836;9.174;2023-06-10T01:41:30;15.10;99.90
48752;DHT22;34544;48.836;9.174;2023-06-10T01:43:56;15.10;99.90
48752;DHT22;34544;48.836;9.174;2023-06-10T01:46:22;15.10;99.90
48752;DHT22;34544;48.836;9.174;2023-06-10T01:48:48;15.10;99.90
48752;DHT22;34544;48.836;9.174;2023-06-10T01:51:15;15.00;99.90
48752;DHT22;34544;48.836;9.174;2023-06-10T01:53:40;15.00;99.90
48752;DHT22;34544;48.836;9.174;2023-06-10T01:56:06;15.00;99.90
48752;DHT22;34544;48.836;9.174;2023-06-10T01:58:32;15.00;99.90
48752;DHT22;34544;48.836;9.174;2023-06-10T02:00:57;14.90;99.90
48752;DHT22;34544;48.836;9.174;2023-06-10T02:03:23;14.90;99.90
48752;DHT22;34544;48.836;9.174;2023-06-10T02:05:49;14.90;99.90
48752;DHT22;34544;48.836;9.174;2023-06-10T02:08:15;14.90;99.90
48752;DHT22;34544;48.836;9.174;2023-06-10T02:10:41;14.80;99.90
48752;DHT22;34544;48.836;9.174;2023-06-10T02:13:06;14.80;99.90
48752;DHT22;34544;48.836;9.174;2023-06-10T02:15:33;14.70;99.90
48752;DHT22;34544;48.836;9.174;2023-06-10T02:17:59;14.70;99.90
48752;DHT22;34544;48.836;9.174;2023-06-10T02:20:25;14.70;99.90
48752;DHT22;34544;48.836;9.174;2023-06-10T02:22:50;14.70;99.90
48752;DHT22;34544;48.836;9.174;2023-06-10T02:25:16;14.60;99.90
48752;DHT22;34544;48.836;9.174;2023-06-10T02:27:42;14.60;99.90
48752;DHT22;34544;48.836;9.174;2023-06-10T02:30:08;14.60;99.90
48752;DHT22;34544;48.836;9.174;2023-06-10T02:32:36;14.50;99.90
48752;DHT22;34544;48.836;9.174;2023-06-10T02:35:02;14.50;99.90
48752;DHT22;34544;48.836;9.174;2023-06-10T02:37:29;14.50;99.90
48752;DHT22;34544;48.836;9.174;2023-06-10T02:39:56;14.40;99.90
48752;DHT22;34544;48.836;9.174;2023-06-10T02:42:22;14.40;99.90
48752;DHT22;34544;48.836;9.174;2023-06-10T02:44:49;14.40;99.90
48752;DHT22;34544;48.836;9.174;2023-06-10T02:47:22;14.30;99.90
48752;DHT22;34544;48.836;9.174;2023-06-10T02:49:48;14.30;99.90
48752;DHT22;34544;48.836;9.174;2023-06-10T02:52:14;14.30;99.90
48752;DHT22;34544;48.836;9.174;2023-06-10T02:54:40;14.30;99.90
48752;DHT22;34544;48.836;9.174;2023-06-10T02:57:08;14.30;99.90
48752;DHT22;34544;48.836;9.174;2023-06-10T02:59:33;14.30;99.90
48752;DHT22;34544;48.836;9.174;2023-06-10T03:01:59;14.30;99.90
48752;DHT22;34544;48.836;9.174;2023-06-10T03:04:28;14.20;99.90
48752;DHT22;34544;48.836;9.174;2023-06-10T03:07:01;14.20;99.90
48752;DHT22;34544;48.836;9.174;2023-06-10T03:09:32;14.20;99.90
48752;DHT22;34544;48.836;9.174;2023-06-10T03:12:00;14.20;99.90
48752;DHT22;34544;48.836;9.174;2023-06-10T03:14:28;14.20;99.90
48752;DHT22;34544;48.836;9.174;2023-06-10T03:16:54;14.10;99.90
48752;DHT22;34544;48.836;9.174;2023-06-10T03:19:22;14.20;99.90
48752;DHT22;34544;48.836;9.174;2023-06-10T03:22:07;14.20;99.90
48752;DHT22;34544;48.836;9.174;2023-06-10T03:24:36;14.20;99.90
48752;DHT22;34544;48.836;9.174;2023-06-10T03:27:03;14.20;99.90
48752;DHT22;34544;48.836;9.174;2023-06-10T03:29:31;14.20;99.90
48752;DHT22;34544;48.836;9.174;2023-06-10T03:31:57;14.20;99.90
48752;DHT22;34544;48.836;9.174;2023-06-10T03:34:23;14.20;99.90
48752;DHT22;34544;48.836;9.174;2023-06-10T03:36:50;14.20;99.90
48752;DHT22;34544;48.836;9.174;2023-06-10T03:39:16;14.20;99.90
48752;DHT22;34544;48.836;9.174;2023-06-10T03:41:42;14.20;99.90
48752;DHT22;34544;48.836;9.174;2023-06-10T03:44:11;14.20;99.90
48752;DHT22;34544;48.836;9.174;2023-06-10T03:46:37;14.20;99.90
48752;DHT22;34544;48.836;9.174;2023-06-10T03:49:03;14.20;99.90
48752;DHT22;34544;48.836;9.174;2023-06-10T03:51:30;14.20;99.90
48752;DHT22;34544;48.836;9.174;2023-06-10T03:53:55;14.20;99.90
48752;DHT22;34544;48.836;9.174;2023-06-10T03:56:21;14.30;99.90
48752;DHT22;34544;48.836;9.174;2023-06-10T03:58:47;14.30;99.90
48752;DHT22;34544;48.836;9.174;2023-06-10T04:01:13;14.40;99.90
48752;DHT22;34544;48.836;9.174;2023-06-10T04:03:39;14.40;99.90
48752;DHT22;34544;48.836;9.174;2023-06-10T04:06:07;14.50;99.90
48752;DHT22;34544;48.836;9.174;2023-06-10T04:08:33;14.50;99.90
48752;DHT22;34544;48.836;9.174;2023-06-10T04:10:59;14.60;99.90
48752;DHT22;34544;48.836;9.174;2023-06-10T04:13:26;14.60;99.90
48752;DHT22;34544;48.836;9.174;2023-06-10T04:15:55;14.60;99.90
48752;DHT22;34544;48.836;9.174;2023-06-10T04:18:21;14.70;99.90
48752;DHT22;34544;48.836;9.174;2023-06-10T04:20:47;14.70;99.90
48752;DHT22;34544;48.836;9.174;2023-06-10T04:23:13;14.70;99.90
48752;DHT22;34544;48.836;9.174;2023-06-10T04:25:41;14.80;99.90
48752;DHT22;34544;48.836;9.174;2023-06-10T04:28:07;14.80;99.90
48752;DHT22;34544;48.836;9.174;2023-06-10T04:30:33;14.90;99.90
48752;DHT22;34544;48.836;9.174;2023-06-10T04:33:00;15.00;99.90
48752;DHT22;34544;48.836;9.174;2023-06-10T04:35:26;15.10;99.90
48752;DHT22;34544;48.836;9.174;2023-06-10T04:37:54;15.30;99.90
48752;DHT22;34544;48.836;9.174;2023-06-10T04:40:20;15.30;99.90
48752;DHT22;34544;48.836;9.174;2023-06-10T04:42:46;15.40;99.90
48752;DHT22;34544;48.836;9.174;2023-06-10T04:45:13;15.60;99.90
48752;DHT22;34544;48.836;9.174;2023-06-10T04:47:39;15.70;99.90
48752;DHT22;34544;48.836;9.174;2023-06-10T04:50:06;15.80;99.90
48752;DHT22;34544;48.836;9.174;2023-06-10T04:52:31;16.00;99.90
48752;DHT22;34544;48.836;9.174;2023-06-10T04:54:59;16.10;99.90
48752;DHT22;34544;48.836;9.174;2023-06-10T04:57:24;16.20;99.90
48752;DHT22;34544;48.836;9.174;2023-06-10T04:59:50;16.30;99.90
48752;DHT22;34544;48.836;9.174;2023-06-10T05:02:16;16.40;99.90
48752;DHT22;34544;48.836;9.174;2023-06-10T05:04:41;16.60;99.90
48752;DHT22;34544;48.836;9.174;2023-06-10T05:07:07;16.60;99.90
48752;DHT22;34544;48.836;9.174;2023-06-10T05:09:33;16.80;99.90
48752;DHT22;34544;48.836;9.174;2023-06-10T05:11:58;16.90;99.90
48752;DHT22;34544;48.836;9.174;2023-06-10T05:14:24;17.00;99.90
48752;DHT22;34544;48.836;9.174;2023-06-10T05:19:16;17.30;99.90
48752;DHT22;34544;48.836;9.174;2023-06-10T05:21:42;17.40;99.90
48752;DHT22;34544;48.836;9.174;2023-06-10T05:24:07;17.50;99.90
48752;DHT22;34544;48.836;9.174;2023-06-10T05:26:33;17.60;99.90
48752;DHT22;34544;48.836;9.174;2023-06-10T05:29:06;17.80;99.90
48752;DHT22;34544;48.836;9.174;2023-06-10T05:31:32;17.90;99.90
48752;DHT22;34544;48.836;9.174;2023-06-10T05:33:58;18.00;99.90
48752;DHT22;34544;48.836;9.174;2023-06-10T05:36:23;18.10;99.90
48752;DHT22;34544;48.836;9.174;2023-06-10T05:38:51;18.20;99.90
48752;DHT22;34544;48.836;9.174;2023-06-10T05:41:17;18.30;99.90
48752;DHT22;34544;48.836;9.174;2023-06-10T05:43:42;18.40;99.90
48752;DHT22;34544;48.836;9.174;2023-06-10T05:46:09;18.50;99.90
48752;DHT22;34544;48.836;9.174;2023-06-10T05:48:35;18.60;99.90
48752;DHT22;34544;48.836;9.174;2023-06-10T05:51:00;18.70;99.90
48752;DHT22;34544;48.836;9.174;2023-06-10T05:53:26;18.80;99.90
48752;DHT22;34544;48.836;9.174;2023-06-10T05:55:52;18.90;99.90
48752;DHT22;34544;48.836;9.174;2023-06-10T05:58:19;19.00;99.90
48752;DHT22;34544;48.836;9.174;2023-06-10T06:00:45;19.10;99.90
48752;DHT22;34544;48.836;9.174;2023-06-10T06:03:11;19.20;99.90
48752;DHT22;34544;48.836;9.174;2023-06-10T06:05:37;19.30;99.90
48752;DHT22;34544;48.836;9.174;2023-06-10T06:08:07;19.40;99.90
48752;DHT22;34544;48.836;9.174;2023-06-10T06:10:33;19.50;99.90
48752;DHT22;34544;48.836;9.174;2023-06-10T06:12:59;19.60;99.90
48752;DHT22;34544;48.836;9.174;2023-06-10T06:15:25;19.60;99.90
48752;DHT22;34544;48.836;9.174;2023-06-10T06:17:51;19.70;99.90
48752;DHT22;34544;48.836;9.174;2023-06-10T06:20:20;19.90;99.90
48752;DHT22;34544;48.836;9.174;2023-06-10T06:22:46;20.00;99.90
48752;DHT22;34544;48.836;9.174;2023-06-10T06:25:12;20.00;99.90
48752;DHT22;34544;48.836;9.174;2023-06-10T06:27:37;20.20;99.90
48752;DHT22;34544;48.836;9.174;2023-06-10T06:30:03;20.20;99.90
48752;DHT22;34544;48.836;9.174;2023-06-10T06:32:29;20.30;99.90
48752;DHT22;34544;48.836;9.174;2023-06-10T06:34:55;20.30;99.90
48752;DHT22;34544;48.836;9.174;2023-06-10T06:37:24;20.40;99.90
48752;DHT22;34544;48.836;9.174;2023-06-10T06:39:55;20.50;99.90
48752;DHT22;34544;48.836;9.174;2023-06-10T06:42:21;20.60;99.90
48752;DHT22;34544;48.836;9.174;2023-06-10T06:44:56;20.70;99.90
48752;DHT22;34544;48.836;9.174;2023-06-10T06:47:22;20.90;99.90
48752;DHT22;34544;48.836;9.174;2023-06-10T06:49:48;21.00;99.90
48752;DHT22;34544;48.836;9.174;2023-06-10T06:52:15;21.10;99.90
48752;DHT22;34544;48.836;9.174;2023-06-10T06:54:40;21.20;99.90
48752;DHT22;34544;48.836;9.174;2023-06-10T06:57:06;21.30;99.90
48752;DHT22;34544;48.836;9.174;2023-06-10T06:59:32;21.50;99.90
48752;DHT22;34544;48.836;9.174;2023-06-10T07:01:58;21.50;99.90
48752;DHT22;34544;48.836;9.174;2023-06-10T07:04:24;21.70;99.90
48752;DHT22;34544;48.836;9.174;2023-06-10T07:06:50;21.90;99.90
48752;DHT22;34544;48.836;9.174;2023-06-10T07:09:15;22.10;99.90
48752;DHT22;34544;48.836;9.174;2023-06-10T07:14:08;22.50;99.90
48752;DHT22;34544;48.836;9.174;2023-06-10T07:16:34;22.60;99.90
48752;DHT22;34544;48.836;9.174;2023-06-10T07:18:59;22.80;99.90
48752;DHT22;34544;48.836;9.174;2023-06-10T07:21:25;23.10;99.90
48752;DHT22;34544;48.836;9.174;2023-06-10T07:26:22;23.60;99.90
48752;DHT22;34544;48.836;9.174;2023-06-10T07:28:48;23.80;99.90
48752;DHT22;34544;48.836;9.174;2023-06-10T07:31:14;23.90;99.90
48752;DHT22;34544;48.836;9.174;2023-06-10T07:33:39;24.10;99.90
48752;DHT22;34544;48.836;9.174;2023-06-10T07:36:06;24.30;99.90
48752;DHT22;34544;48.836;9.174;2023-06-10T07:38:31;24.40;99.90
48752;DHT22;34544;48.836;9.174;2023-06-10T07:40:57;24.60;99.90
48752;DHT22;34544;48.836;9.174;2023-06-10T07:43:24;24.80;99.90
48752;DHT22;34544;48.836;9.174;2023-06-10T07:48:15;25.10;99.90
48752;DHT22;34544;48.836;9.174;2023-06-10T07:50:41;25.20;99.90
48752;DHT22;34544;48.836;9.174;2023-06-10T07:53:07;25.40;99.90
48752;DHT22;34544;48.836;9.174;2023-06-10T07:55:32;25.50;99.90
48752;DHT22;34544;48.836;9.174;2023-06-10T07:57:58;25.60;99.90
48752;DHT22;34544;48.836;9.174;2023-06-10T08:00:24;25.80;99.90
48752;DHT22;34544;48.836;9.174;2023-06-10T08:02:50;26.00;99.90
48752;DHT22;34544;48.836;9.174;2023-06-10T08:05:16;26.20;99.90
48752;DHT22;34544;48.836;9.174;2023-06-10T08:07:42;26.40;99.90
48752;DHT22;34544;48.836;9.174;2023-06-10T08:10:09;26.50;99.90
48752;DHT22;34544;48.836;9.174;2023-06-10T08:12:35;26.70;99.90
48752;DHT22;34544;48.836;9.174;2023-06-10T08:15:02;26.80;99.90
48752;DHT22;34544;48.836;9.174;2023-06-10T08:17:30;26.90;99.90
48752;DHT22;34544;48.836;9.174;2023-06-10T08:19:56;27.00;99.90
48752;DHT22;34544;48.836;9.174;2023-06-10T08:22:21;27.10;99.90
48752;DHT22;34544;48.836;9.174;2023-06-10T08:24:47;27.20;99.90
48752;DHT22;34544;48.836;9.174;2023-06-10T08:27:13;27.20;99.90
48752;DHT22;34544;48.836;9.174;2023-06-10T08:29:39;27.40;99.90
48752;DHT22;34544;48.836;9.174;2023-06-10T08:32:05;27.40;99.90
48752;DHT22;34544;48.836;9.174;2023-06-10T08:34:33;27.50;99.90
48752;DHT22;34544;48.836;9.174;2023-06-10T08:36:59;27.50;99.90
48752;DHT22;34544;48.836;9.174;2023-06-10T08:39:25;27.60;99.90
48752;DHT22;34544;48.836;9.174;2023-06-10T08:44:31;27.90;99.90
48752;DHT22;34544;48.836;9.174;2023-06-10T08:47:07;27.90;99.90
48752;DHT22;34544;48.836;9.174;2023-06-10T08:49:38;28.20;99.90
48752;DHT22;34544;48.836;9.174;2023-06-10T08:52:07;28.40;99.90
48752;DHT22;34544;48.836;9.174;2023-06-10T08:54:33;28.70;99.90
48752;DHT22;34544;48.836;9.174;2023-06-10T08:57:05;28.90;99.90
48752;DHT22;34544;48.836;9.174;2023-06-10T09:02:00;29.30;99.20
48752;DHT22;34544;48.836;9.174;2023-06-10T09:04:28;29.60;98.90
48752;DHT22;34544;48.836;9.174;2023-06-10T09:06:54;29.80;98.00
48752;DHT22;34544;48.836;9.174;2023-06-10T09:09:21;30.00;97.70
48752;DHT22;34544;48.836;9.174;2023-06-10T09:11:47;30.20;98.10
48752;DHT22;34544;48.836;9.174;2023-06-10T09:14:13;30.40;97.10
48752;DHT22;34544;48.836;9.174;2023-06-10T09:16:39;30.50;95.80
48752;DHT22;34544;48.836;9.174;2023-06-10T09:19:06;30.40;95.80
48752;DHT22;34544;48.836;9.174;2023-06-10T09:21:34;30.50;95.80
48752;DHT22;34544;48.836;9.174;2023-06-10T09:24:01;30.70;95.20
48752;DHT22;34544;48.836;9.174;2023-06-10T09:26:30;30.90;99.90
48752;DHT22;34544;48.836;9.174;2023-06-10T09:29:07;31.10;99.90
48752;DHT22;34544;48.836;9.174;2023-06-10T09:31:38;31.10;99.90
48752;DHT22;34544;48.836;9.174;2023-06-10T09:34:14;30.90;99.10
48752;DHT22;34544;48.836;9.174;2023-06-10T09:36:42;30.90;99.90
48752;DHT22;34544;48.836;9.174;2023-06-10T09:39:18;31.20;98.80
48752;DHT22;34544;48.836;9.174;2023-06-10T09:41:45;31.30;99.50
48752;DHT22;34544;48.836;9.174;2023-06-10T09:44:18;31.20;98.70
48752;DHT22;34544;48.836;9.174;2023-06-10T09:46:49;31.40;98.30
48752;DHT22;34544;48.836;9.174;2023-06-10T09:49:16;31.70;92.60
48752;DHT22;34544;48.836;9.174;2023-06-10T09:51:55;31.80;91.60
48752;DHT22;34544;48.836;9.174;2023-06-10T09:54:21;31.80;94.00
48752;DHT22;34544;48.836;9.174;2023-06-10T09:56:48;31.90;92.20
48752;DHT22;34544;48.836;9.174;2023-06-10T09:59:14;32.30;91.60
48752;DHT22;34544;48.836;9.174;2023-06-10T10:01:40;32.70;92.20
48752;DHT22;34544;48.836;9.174;2023-06-10T10:04:06;32.80;91.50
48752;DHT22;34544;48.836;9.174;2023-06-10T10:06:31;32.60;90.90
48752;DHT22;34544;48.836;9.174;2023-06-10T10:08:57;32.30;91.30
48752;DHT22;34544;48.836;9.174;2023-06-10T10:11:23;31.90;92.00
48752;DHT22;34544;48.836;9.174;2023-06-10T10:13:52;31.80;91.80
48752;DHT22;34544;48.836;9.174;2023-06-10T10:16:25;31.90;91.80
48752;DHT22;34544;48.836;9.174;2023-06-10T10:18:55;32.00;91.00
48752;DHT22;34544;48.836;9.174;2023-06-10T10:21:23;32.10;91.20
48752;DHT22;34544;48.836;9.174;2023-06-10T10:24:11;32.30;90.60
48752;DHT22;34544;48.836;9.174;2023-06-10T10:26:38;32.50;91.00
48752;DHT22;34544;48.836;9.174;2023-06-10T10:29:11;32.80;90.20
48752;DHT22;34544;48.836;9.174;2023-06-10T10:31:42;32.80;89.80
48752;DHT22;34544;48.836;9.174;2023-06-10T10:34:15;33.00;89.90
48752;DHT22;34544;48.836;9.174;2023-06-10T10:36:42;33.30;90.20
48752;DHT22;34544;48.836;9.174;2023-06-10T10:39:08;33.50;88.80
48752;DHT22;34544;48.836;9.174;2023-06-10T10:41:36;33.70;89.80
48752;DHT22;34544;48.836;9.174;2023-06-10T10:44:02;34.10;87.60
48752;DHT22;34544;48.836;9.174;2023-06-10T10:46:30;34.30;87.60
48752;DHT22;34544;48.836;9.174;2023-06-10T10:49:07;34.60;88.90
48752;DHT22;34544;48.836;9.174;2023-06-10T10:51:34;35.00;98.10
48752;DHT22;34544;48.836;9.174;2023-06-10T10:54:11;35.20;90.50
48752;DHT22;34544;48.836;9.174;2023-06-10T10:56:38;35.30;85.40
48752;DHT22;34544;48.836;9.174;2023-06-10T10:59:04;35.20;83.70
48752;DHT22;34544;48.836;9.174;2023-06-10T11:01:43;34.80;82.20
48752;DHT22;34544;48.836;9.174;2023-06-10T11:04:12;34.60;82.40
48752;DHT22;34544;48.836;9.174;2023-06-10T11:06:38;34.60;85.10
48752;DHT22;34544;48.836;9.174;2023-06-10T11:09:25;34.70;81.50
48752;DHT22;34544;48.836;9.174;2023-06-10T11:11:52;34.70;81.40
48752;DHT22;34544;48.836;9.174;2023-06-10T11:14:29;34.30;82.80
48752;DHT22;34544;48.836;9.174;2023-06-10T11:16:58;33.90;83.20
48752;DHT22;34544;48.836;9.174;2023-06-10T11:19:37;34.00;84.40
48752;DHT22;34544;48.836;9.174;2023-06-10T11:22:16;34.00;82.80
48752;DHT22;34544;48.836;9.174;2023-06-10T11:24:47;33.60;82.20
48752;DHT22;34544;48.836;9.174;2023-06-10T11:32:35;33.40;82.70
48752;DHT22;34544;48.836;9.174;2023-06-10T11:35:04;34.00;80.60
48752;DHT22;34544;48.836;9.174;2023-06-10T11:37:30;34.60;81.30
48752;DHT22;34544;48.836;9.174;2023-06-10T11:39:56;34.90;79.90
48752;DHT22;34544;48.836;9.174;2023-06-10T11:42:22;35.30;79.70
48752;DHT22;34544;48.836;9.174;2023-06-10T11:47:18;35.80;79.70
48752;DHT22;34544;48.836;9.174;2023-06-10T11:49:45;36.10;77.30
48752;DHT22;34544;48.836;9.174;2023-06-10T11:54:38;36.70;74.30
48752;DHT22;34544;48.836;9.174;2023-06-10T11:59:31;37.10;74.90
48752;DHT22;34544;48.836;9.174;2023-06-10T12:01:56;36.80;75.50
48752;DHT22;34544;48.836;9.174;2023-06-10T12:04:22;36.30;76.20
48752;DHT22;34544;48.836;9.174;2023-06-10T12:06:52;35.70;76.10
48752;DHT22;34544;48.836;9.174;2023-06-10T12:09:26;35.10;76.90
48752;DHT22;34544;48.836;9.174;2023-06-10T12:12:01;34.40;77.20
48752;DHT22;34544;48.836;9.174;2023-06-10T12:14:55;33.90;76.80
48752;DHT22;34544;48.836;9.174;2023-06-10T12:19:56;33.20;76.50
48752;DHT22;34544;48.836;9.174;2023-06-10T12:22:23;32.90;78.80
48752;DHT22;34544;48.836;9.174;2023-06-10T12:25:01;32.70;78.90
48752;DHT22;34544;48.836;9.174;2023-06-10T12:27:28;32.40;79.10
48752;DHT22;34544;48.836;9.174;2023-06-10T12:29:56;32.20;79.40
48752;DHT22;34544;48.836;9.174;2023-06-10T12:35:06;32.40;79.50
48752;DHT22;34544;48.836;9.174;2023-06-10T12:37:32;32.40;80.00
48752;DHT22;34544;48.836;9.174;2023-06-10T12:40:03;32.60;80.00
48752;DHT22;34544;48.836;9.174;2023-06-10T12:42:29;33.30;79.20
48752;DHT22;34544;48.836;9.174;2023-06-10T12:44:56;33.80;77.30
48752;DHT22;34544;48.836;9.174;2023-06-10T12:47:35;33.80;76.40
48752;DHT22;34544;48.836;9.174;2023-06-10T12:50:03;33.60;77.30
48752;DHT22;34544;48.836;9.174;2023-06-10T12:52:29;33.80;77.20
48752;DHT22;34544;48.836;9.174;2023-06-10T12:54:56;34.40;76.40
48752;DHT22;34544;48.836;9.174;2023-06-10T12:57:22;35.20;76.00
48752;DHT22;34544;48.836;9.174;2023-06-10T12:59:48;36.10;74.70
48752;DHT22;34544;48.836;9.174;2023-06-10T13:02:22;36.90;73.70
48752;DHT22;34544;48.836;9.174;2023-06-10T13:04:52;37.60;70.90
48752;DHT22;34544;48.836;9.174;2023-06-10T13:07:18;37.70;72.40
48752;DHT22;34544;48.836;9.174;2023-06-10T13:09:44;37.90;70.80
48752;DHT22;34544;48.836;9.174;2023-06-10T13:12:14;38.30;69.00
48752;DHT22;34544;48.836;9.174;2023-06-10T13:14:40;38.20;70.30
48752;DHT22;34544;48.836;9.174;2023-06-10T13:17:06;37.80;70.90
48752;DHT22;34544;48.836;9.174;2023-06-10T13:19:32;37.60;70.10
48752;DHT22;34544;48.836;9.174;2023-06-10T13:21:58;37.20;70.30
48752;DHT22;34544;48.836;9.174;2023-06-10T13:24:24;36.80;71.50
48752;DHT22;34544;48.836;9.174;2023-06-10T13:26:50;36.70;71.80
48752;DHT22;34544;48.836;9.174;2023-06-10T13:29:15;37.10;71.30
48752;DHT22;34544;48.836;9.174;2023-06-10T13:31:41;37.30;69.80
48752;DHT22;34544;48.836;9.174;2023-06-10T13:34:08;37.30;71.20
48752;DHT22;34544;48.836;9.174;2023-06-10T13:36:33;37.00;69.80
48752;DHT22;34544;48.836;9.174;2023-06-10T13:38:59;36.40;69.10
48752;DHT22;34544;48.836;9.174;2023-06-10T13:41:25;36.20;70.30
48752;DHT22;34544;48.836;9.174;2023-06-10T13:43:54;36.50;69.20
48752;DHT22;34544;48.836;9.174;2023-06-10T13:46:20;36.80;69.00
48752;DHT22;34544;48.836;9.174;2023-06-10T13:48:47;37.10;69.60
48752;DHT22;34544;48.836;9.174;2023-06-10T13:51:12;37.60;70.00
48752;DHT22;34544;48.836;9.174;2023-06-10T13:53:38;38.10;70.00
48752;DHT22;34544;48.836;9.174;2023-06-10T13:56:04;38.30;69.00
48752;DHT22;34544;48.836;9.174;2023-06-10T13:58:29;38.20;69.20
48752;DHT22;34544;48.836;9.174;2023-06-10T14:00:55;37.50;67.60
48752;DHT22;34544;48.836;9.174;2023-06-10T14:03:21;36.90;68.70
48752;DHT22;34544;48.836;9.174;2023-06-10T14:05:46;36.20;69.00
48752;DHT22;34544;48.836;9.174;2023-06-10T14:08:12;36.00;71.30
48752;DHT22;34544;48.836;9.174;2023-06-10T14:10:38;36.20;69.40
48752;DHT22;34544;48.836;9.174;2023-06-10T14:13:04;36.60;70.00
48752;DHT22;34544;48.836;9.174;2023-06-10T14:15:30;37.20;69.60
48752;DHT22;34544;48.836;9.174;2023-06-10T14:17:57;37.80;68.90
48752;DHT22;34544;48.836;9.174;2023-06-10T14:20:23;38.40;68.20
48752;DHT22;34544;48.836;9.174;2023-06-10T14:22:50;38.40;67.10
48752;DHT22;34544;48.836;9.174;2023-06-10T14:25:16;38.50;67.00
48752;DHT22;34544;48.836;9.174;2023-06-10T14:27:43;38.70;67.90
48752;DHT22;34544;48.836;9.174;2023-06-10T14:30:08;39.10;67.20
48752;DHT22;34544;48.836;9.174;2023-06-10T14:32:34;39.40;66.70
48752;DHT22;34544;48.836;9.174;2023-06-10T14:35:00;39.70;66.60
48752;DHT22;34544;48.836;9.174;2023-06-10T14:37:25;39.90;65.60
48752;DHT22;34544;48.836;9.174;2023-06-10T14:39:51;40.00;65.30
48752;DHT22;34544;48.836;9.174;2023-06-10T14:42:17;39.80;64.70
48752;DHT22;34544;48.836;9.174;2023-06-10T14:44:42;39.10;65.40
48752;DHT22;34544;48.836;9.174;2023-06-10T14:47:08;38.50;65.50
48752;DHT22;34544;48.836;9.174;2023-06-10T14:49:34;38.40;65.10
48752;DHT22;34544;48.836;9.174;2023-06-10T14:51:59;38.20;66.30
48752;DHT22;34544;48.836;9.174;2023-06-10T14:54:25;38.10;65.70
48752;DHT22;34544;48.836;9.174;2023-06-10T14:56:51;37.70;66.40
48752;DHT22;34544;48.836;9.174;2023-06-10T14:59:16;37.60;66.70
48752;DHT22;34544;48.836;9.174;2023-06-10T15:01:42;37.80;66.80
48752;DHT22;34544;48.836;9.174;2023-06-10T15:04:08;37.60;66.00
48752;DHT22;34544;48.836;9.174;2023-06-10T15:06:34;37.50;67.60
48752;DHT22;34544;48.836;9.174;2023-06-10T15:08:59;37.30;66.60
48752;DHT22;34544;48.836;9.174;2023-06-10T15:11:25;37.20;67.30
48752;DHT22;34544;48.836;9.174;2023-06-10T15:13:51;37.20;65.70
48752;DHT22;34544;48.836;9.174;2023-06-10T15:16:16;36.80;66.10
48752;DHT22;34544;48.836;9.174;2023-06-10T15:18:42;36.20;66.20
48752;DHT22;34544;48.836;9.174;2023-06-10T15:21:08;35.30;67.80
48752;DHT22;34544;48.836;9.174;2023-06-10T15:23:33;34.50;67.80
48752;DHT22;34544;48.836;9.174;2023-06-10T15:25:59;33.70;68.90
48752;DHT22;34544;48.836;9.174;2023-06-10T15:28:25;33.40;69.70
48752;DHT22;34544;48.836;9.174;2023-06-10T15:30:50;33.60;69.50
48752;DHT22;34544;48.836;9.174;2023-06-10T15:33:16;33.90;68.10
48752;DHT22;34544;48.836;9.174;2023-06-10T15:35:42;34.40;68.00
48752;DHT22;34544;48.836;9.174;2023-06-10T15:38:07;34.80;67.90
48752;DHT22;34544;48.836;9.174;2023-06-10T15:40:33;35.20;67.80
48752;DHT22;34544;48.836;9.174;2023-06-10T15:42:59;35.70;68.80
48752;DHT22;34544;48.836;9.174;2023-06-10T15:45:24;36.00;68.40
48752;DHT22;34544;48.836;9.174;2023-06-10T15:47:50;36.20;68.60
48752;DHT22;34544;48.836;9.174;2023-06-10T15:50:16;36.30;68.50
48752;DHT22;34544;48.836;9.174;2023-06-10T15:52:41;36.40;68.50
48752;DHT22;34544;48.836;9.174;2023-06-10T15:55:07;36.40;68.50
48752;DHT22;34544;48.836;9.174;2023-06-10T15:57:33;36.40;68.10
48752;DHT22;34544;48.836;9.174;2023-06-10T15:59:59;36.50;67.40
48752;DHT22;34544;48.836;9.174;2023-06-10T16:02:24;36.50;66.80
48752;DHT22;34544;48.836;9.174;2023-06-10T16:04:50;36.40;67.00
48752;DHT22;34544;48.836;9.174;2023-06-10T16:07:16;36.30;66.10